Time;durP1;ratioP1;P1;durP2;ratioP2;P2;SDS_P1;SDS_P2;PMS_P1;PMS_P2;Temp;Humidity;BMP_temperature;BMP_pressure;BME280_temperature;BME280_humidity;BME280_pressure;Samples;Min_cycle;Max_cycle;Signal;HPM_P1;HPM_P2
2021/04/22 00:01:49;;;;;;;14.18;10.93;;;;;;;15.78;51.69;101545.28;4956528;28;20051;-63
2021/04/22 00:04:16;;;;;;;15.95;11.27;;;;;;;15.76;51.59;101549.84;4956620;28;20126;-62
2021/04/22 00:06:43;;;;;;;15.13;11.35;;;;;;;15.74;51.50;101546.44;4956302;28;20051;-62
2021/04/22 00:09:09;;;;;;;12.48;10.38;;;;;;;15.73;51.61;101555.31;4953716;28;20055;-62
2021/04/22 00:11:36;;;;;;;13.57;10.77;;;;;;;15.71;51.61;101555.44;4947173;28;20488;-62
2021/04/22 00:14:06;;;;;;;13.90;10.30;;;;;;;15.69;51.59;101541.44;4961094;28;20098;-62
2021/04/22 00:16:32;;;;;;;14.57;10.25;;;;;;;15.68;51.53;101542.41;4956607;28;20110;-62
2021/04/22 00:18:59;;;;;;;13.10;10.13;;;;;;;15.68;51.57;101548.53;4956441;28;20129;-62
2021/04/22 00:21:25;;;;;;;14.95;11.48;;;;;;;15.65;51.62;101540.78;4956150;28;20047;-62
2021/04/22 00:23:51;;;;;;;14.18;10.30;;;;;;;15.64;51.57;101536.47;4956385;28;20055;-63
2021/04/22 00:26:17;;;;;;;14.52;10.15;;;;;;;15.63;51.72;101542.69;4955840;28;20055;-62
2021/04/22 00:28:43;;;;;;;12.40;9.93;;;;;;;15.63;51.74;101541.84;4963036;28;20102;-64
2021/04/22 00:31:11;;;;;;;12.60;9.93;;;;;;;15.62;51.64;101545.47;4959668;28;20142;-61
2021/04/22 00:33:37;;;;;;;15.10;10.65;;;;;;;15.61;51.52;101552.53;4956362;28;20080;-62
2021/04/22 00:36:03;;;;;;;14.63;10.93;;;;;;;15.60;51.53;101550.81;4955573;28;20055;-62
2021/04/22 00:38:30;;;;;;;13.48;10.38;;;;;;;15.59;51.76;101546.50;4956066;28;20102;-62
2021/04/22 00:40:56;;;;;;;14.07;10.93;;;;;;;15.58;51.97;101557.16;4955972;28;20097;-63
2021/04/22 00:43:22;;;;;;;11.90;9.55;;;;;;;15.55;52.10;101552.91;4955381;28;20504;-61
2021/04/22 00:45:49;;;;;;;12.90;10.63;;;;;;;15.51;52.07;101549.66;4950326;28;20115;-62
2021/04/22 00:48:23;;;;;;;15.60;10.75;;;;;;;15.49;52.34;101548.88;4955757;28;20114;-62
2021/04/22 00:50:51;;;;;;;13.35;10.32;;;;;;;15.48;52.40;101551.63;4955597;28;20079;-62
2021/04/22 00:53:18;;;;;;;13.68;10.80;;;;;;;15.45;52.25;101547.41;4955656;28;20539;-62
2021/04/22 00:55:44;;;;;;;13.57;10.60;;;;;;;15.45;52.25;101542.09;4955758;28;20051;-61
2021/04/22 00:58:10;;;;;;;14.82;11.25;;;;;;;15.43;52.20;101545.81;4955471;28;20047;-61
2021/04/22 01:00:40;;;;;;;15.50;11.45;;;;;;;15.40;52.28;101544.19;4955648;28;20416;-62
2021/04/22 01:03:07;;;;;;;14.35;11.50;;;;;;;15.37;52.34;101541.75;4955532;28;20055;-63
2021/04/22 01:05:46;;;;;;;14.48;11.50;;;;;;;15.35;52.45;101551.59;4955284;28;20050;-61
2021/04/22 01:08:12;;;;;;;13.10;11.57;;;;;;;15.32;52.52;101541.19;4955412;28;20062;-62
2021/04/22 01:10:39;;;;;;;15.80;12.35;;;;;;;15.31;52.53;101547.41;4941664;28;20432;-62
2021/04/22 01:13:05;;;;;;;14.95;11.75;;;;;;;15.29;52.51;101544.03;4955306;28;20059;-61
2021/04/22 01:15:33;;;;;;;15.15;11.52;;;;;;;15.27;52.73;101543.28;4954644;28;20495;-62
2021/04/22 01:18:01;;;;;;;15.45;11.38;;;;;;;15.24;52.70;101546.13;4954829;29;20043;-62
2021/04/22 01:20:30;;;;;;;15.40;11.65;;;;;;;15.21;52.89;101549.81;4955258;28;20054;-62
2021/04/22 01:22:59;;;;;;;15.20;12.10;;;;;;;15.19;52.85;101528.75;4955019;28;20047;-61
2021/04/22 01:25:31;;;;;;;15.38;13.07;;;;;;;15.16;52.88;101539.53;4955136;28;20110;-61
2021/04/22 01:27:58;;;;;;;15.13;11.93;;;;;;;15.15;52.97;101531.69;4954787;28;20055;-62
2021/04/22 01:30:33;;;;;;;15.38;11.85;;;;;;;15.12;52.90;101532.75;4954901;28;20050;-62
2021/04/22 01:33:00;;;;;;;15.60;11.67;;;;;;;15.10;52.94;101534.63;4954841;28;20432;-62
2021/04/22 01:35:32;;;;;;;18.70;12.20;;;;;;;15.06;52.76;101519.91;4948110;28;20075;-62
2021/04/22 01:37:59;;;;;;;15.77;12.40;;;;;;;15.04;52.85;101523.59;4951217;29;20043;-61
2021/04/22 01:40:27;;;;;;;17.33;12.68;;;;;;;15.01;52.56;101528.13;4954977;28;20102;-62
2021/04/22 01:42:53;;;;;;;15.63;12.30;;;;;;;14.99;52.79;101526.50;4954678;28;20114;-62
2021/04/22 01:45:20;;;;;;;14.25;12.10;;;;;;;14.98;52.62;101525.69;4954694;28;20460;-61
2021/04/22 01:47:46;;;;;;;16.20;12.52;;;;;;;14.97;53.01;101525.75;4954824;28;20098;-62
2021/04/22 01:50:18;;;;;;;15.32;12.05;;;;;;;14.94;52.74;101532.06;4954467;28;20044;-62
2021/04/22 01:52:45;;;;;;;15.98;13.00;;;;;;;14.93;52.81;101534.81;4958919;28;20054;-62
2021/04/22 01:55:15;;;;;;;15.05;12.25;;;;;;;14.91;52.92;101537.56;4953916;28;20051;-62
2021/04/22 01:57:41;;;;;;;17.80;12.90;;;;;;;14.90;52.99;101542.97;4954700;28;20078;-62
2021/04/22 02:00:17;;;;;;;15.70;12.38;;;;;;;14.88;53.16;101552.75;4954414;28;20149;-62
2021/04/22 02:02:43;;;;;;;17.88;13.13;;;;;;;14.80;53.32;101550.59;4954538;28;20054;-61
2021/04/22 02:05:11;;;;;;;15.93;13.05;;;;;;;14.72;53.48;101547.59;4954235;28;20967;-62
2021/04/22 02:07:37;;;;;;;14.98;12.27;;;;;;;14.65;53.68;101541.81;4954501;28;20456;-61
2021/04/22 02:10:06;;;;;;;17.70;13.25;;;;;;;14.64;53.91;101546.25;4944931;28;20119;-61
2021/04/22 02:12:32;;;;;;;16.27;12.57;;;;;;;14.63;53.82;101547.16;4951229;29;20110;-62
2021/04/22 02:14:58;;;;;;;18.58;13.60;;;;;;;14.62;53.87;101539.34;4954308;28;20054;-61
2021/04/22 02:17:24;;;;;;;18.98;13.18;;;;;;;14.59;53.99;101537.72;4954324;28;20110;-62
2021/04/22 02:19:50;;;;;;;16.10;12.30;;;;;;;14.57;53.87;101536.97;4954560;28;20437;-61
2021/04/22 02:22:17;;;;;;;16.60;12.60;;;;;;;14.53;53.99;101543.38;4954158;28;20059;-62
2021/04/22 02:24:43;;;;;;;14.70;12.55;;;;;;;14.49;54.05;101542.72;4954125;28;20408;-62
2021/04/22 02:27:10;;;;;;;16.30;11.90;;;;;;;14.46;54.09;101537.63;4955587;28;20527;-61
2021/04/22 02:29:36;;;;;;;15.25;12.13;;;;;;;14.44;54.06;101538.66;4954057;28;20039;-61
2021/04/22 02:32:02;;;;;;;17.67;13.15;;;;;;;14.41;54.15;101533.56;4954064;28;20555;-62
2021/04/22 02:34:29;;;;;;;17.23;13.10;;;;;;;14.37;53.94;101536.38;4954240;28;20381;-61
2021/04/22 02:36:55;;;;;;;18.08;13.50;;;;;;;14.34;53.91;101527.81;4953933;28;20055;-62
2021/04/22 02:39:21;;;;;;;18.20;13.52;;;;;;;14.29;54.02;101525.44;4954062;28;20055;-62
2021/04/22 02:41:47;;;;;;;16.15;12.73;;;;;;;14.27;54.05;101534.38;4955223;28;20448;-62
2021/04/22 02:44:14;;;;;;;17.17;13.18;;;;;;;14.26;53.92;101530.03;4954036;28;20670;-61
2021/04/22 02:46:40;;;;;;;19.95;14.48;;;;;;;14.23;54.05;101531.06;4953940;28;20114;-62
2021/04/22 02:49:06;;;;;;;19.98;13.60;;;;;;;14.23;53.97;101530.22;4954140;28;20051;-62
2021/04/22 02:51:33;;;;;;;16.83;13.63;;;;;;;14.19;53.93;101533.06;4953782;28;20389;-62
2021/04/22 02:53:59;;;;;;;19.05;14.30;;;;;;;14.17;53.96;101540.22;4953865;28;20051;-61
2021/04/22 02:56:25;;;;;;;18.67;14.55;;;;;;;14.15;53.93;101533.31;4953868;28;20047;-61
2021/04/22 02:58:51;;;;;;;19.58;14.30;;;;;;;14.13;53.85;101533.44;4966123;28;20110;-61
2021/04/22 03:01:17;;;;;;;20.63;14.77;;;;;;;14.12;53.87;101533.50;4953793;28;20062;-62
2021/04/22 03:03:43;;;;;;;20.00;15.63;;;;;;;14.10;53.90;101530.94;4949373;28;20047;-62
2021/04/22 03:06:10;;;;;;;21.50;15.70;;;;;;;14.10;53.83;101532.75;4951882;28;20074;-62
2021/04/22 03:08:36;;;;;;;22.27;15.95;;;;;;;14.09;53.70;101531.03;4955827;28;20039;-62
2021/04/22 03:11:02;;;;;;;20.60;16.20;;;;;;;14.04;53.66;101521.63;4940711;28;20062;-62
2021/04/22 03:13:29;;;;;;;20.60;15.77;;;;;;;14.03;53.72;101525.19;4954560;28;20051;-63
2021/04/22 03:15:55;;;;;;;23.30;15.00;;;;;;;14.02;53.78;101530.56;4953990;28;20055;-62
2021/04/22 03:18:21;;;;;;;19.77;14.20;;;;;;;13.98;53.60;101529.03;4954328;28;20051;-62
2021/04/22 03:20:47;;;;;;;29.77;16.13;;;;;;;13.93;53.66;101542.50;4954253;28;20048;-62
2021/04/22 03:23:13;;;;;;;28.17;15.48;;;;;;;13.88;53.63;101542.75;4954150;29;20043;-62
2021/04/22 03:25:40;;;;;;;22.73;15.27;;;;;;;13.85;53.59;101539.44;4954713;28;20051;-62
2021/04/22 03:28:06;;;;;;;22.00;14.18;;;;;;;13.83;53.72;101542.19;4954674;28;20075;-62
2021/04/22 03:30:33;;;;;;;21.10;14.88;;;;;;;13.82;53.88;101537.84;4954354;28;20487;-62
2021/04/22 03:33:00;;;;;;;21.02;15.05;;;;;;;13.80;54.04;101545.00;4954172;28;20051;-62
2021/04/22 03:35:27;;;;;;;20.55;14.35;;;;;;;13.80;54.08;101549.41;4953936;28;20055;-62
2021/04/22 03:37:54;;;;;;;20.67;14.23;;;;;;;13.79;54.20;101550.34;4953841;28;20047;-62
2021/04/22 03:40:22;;;;;;;18.02;13.98;;;;;;;13.75;54.30;101548.81;4953814;28;20047;-62
2021/04/22 03:42:48;;;;;;;17.10;13.15;;;;;;;13.70;54.39;101543.84;4952605;28;20047;-62
2021/04/22 03:45:16;;;;;;;19.40;13.45;;;;;;;13.64;54.43;101552.09;4940369;29;20126;-62
2021/04/22 03:47:43;;;;;;;17.95;14.25;;;;;;;13.59;54.40;101549.72;4953580;28;20456;-62
2021/04/22 03:50:12;;;;;;;17.50;14.30;;;;;;;13.55;54.61;101559.56;4953593;28;20043;-61
2021/04/22 03:52:38;;;;;;;18.25;13.82;;;;;;;13.50;54.70;101556.34;4953726;28;20059;-61
2021/04/22 03:55:07;;;;;;;17.70;14.20;;;;;;;13.49;54.82;101556.44;4953441;28;20547;-63
2021/04/22 03:57:33;;;;;;;18.88;14.48;;;;;;;13.44;55.01;101558.47;4953661;28;20091;-62
2021/04/22 03:59:59;;;;;;;19.23;14.10;;;;;;;13.41;55.07;101553.34;4961768;28;20475;-62
2021/04/22 04:02:26;;;;;;;20.15;14.13;;;;;;;13.39;55.02;101567.50;4953137;28;20098;-63
2021/04/22 04:04:52;;;;;;;20.33;14.85;;;;;;;13.37;55.13;101557.97;4953712;28;20055;-61
2021/04/22 04:07:18;;;;;;;21.75;14.55;;;;;;;13.35;54.94;101562.44;4952845;28;20043;-62
2021/04/22 04:09:44;;;;;;;26.73;14.70;;;;;;;13.33;54.94;101569.56;4945710;28;20062;-62
2021/04/22 04:12:10;;;;;;;27.48;15.60;;;;;;;13.31;54.88;101564.41;4947429;29;20043;-62
2021/04/22 04:14:37;;;;;;;26.30;15.15;;;;;;;13.29;54.97;101573.31;4953285;28;20149;-62
2021/04/22 04:17:04;;;;;;;21.73;15.32;;;;;;;13.28;55.17;101572.47;4951411;28;20055;-62
2021/04/22 04:19:31;;;;;;;27.52;15.52;;;;;;;13.27;55.34;101570.78;4952588;28;20047;-62
2021/04/22 04:21:58;;;;;;;29.10;17.10;;;;;;;13.28;55.58;101575.13;4952770;28;20051;-62
2021/04/22 04:24:24;;;;;;;28.15;15.98;;;;;;;13.28;55.69;101568.97;4953004;28;20047;-62
2021/04/22 04:26:50;;;;;;;27.73;16.60;;;;;;;13.28;55.94;101577.75;4952823;28;20055;-63
2021/04/22 04:29:17;;;;;;;29.67;16.52;;;;;;;13.28;56.00;101574.25;4952145;28;20206;-62
2021/04/22 04:31:43;;;;;;;23.63;16.85;;;;;;;13.27;56.05;101581.31;4952956;28;20087;-62
2021/04/22 04:34:09;;;;;;;27.63;17.50;;;;;;;13.27;56.08;101585.72;4959918;28;20051;-62
2021/04/22 04:36:35;;;;;;;24.35;17.42;;;;;;;13.27;56.27;101588.34;4952527;28;20086;-61
2021/04/22 04:39:02;;;;;;;28.40;16.38;;;;;;;13.26;56.03;101587.53;4952674;28;20567;-63
2021/04/22 04:41:28;;;;;;;26.88;15.68;;;;;;;13.25;56.27;101593.72;4952686;28;20047;-62
2021/04/22 04:43:54;;;;;;;18.92;14.68;;;;;;;13.22;56.07;101592.09;4952874;28;20051;-62
2021/04/22 04:46:20;;;;;;;21.83;14.90;;;;;;;13.21;55.86;101595.66;4952571;28;20050;-62
2021/04/22 04:48:47;;;;;;;24.65;15.13;;;;;;;13.19;55.96;101599.31;4954136;28;20098;-62
2021/04/22 04:51:14;;;;;;;21.35;15.13;;;;;;;13.17;55.84;101598.56;4942731;28;20094;-62
2021/04/22 04:53:40;;;;;;;29.90;15.95;;;;;;;13.17;56.02;101603.84;4951971;29;20043;-62
2021/04/22 04:56:07;;;;;;;27.63;16.70;;;;;;;13.17;56.01;101601.22;4952512;28;20047;-61
2021/04/22 04:58:36;;;;;;;23.60;16.15;;;;;;;13.17;55.71;101611.75;4951640;28;20400;-61
2021/04/22 05:01:02;;;;;;;24.05;15.65;;;;;;;13.15;56.10;101610.97;4939730;28;20043;-68
2021/04/22 05:03:29;;;;;;;25.33;15.55;;;;;;;13.13;56.27;101616.31;4948715;28;20051;-67
2021/04/22 05:05:55;;;;;;;30.27;17.77;;;;;;;13.13;56.29;101623.38;4952137;28;20047;-68
2021/04/22 05:08:21;;;;;;;23.35;16.00;;;;;;;13.13;56.36;101621.59;4951886;28;20397;-67
2021/04/22 05:10:47;;;;;;;25.50;16.95;;;;;;;13.12;56.38;101625.16;4938616;28;20051;-68
2021/04/22 05:13:14;;;;;;;28.23;16.45;;;;;;;13.07;56.65;101625.38;4952308;28;20055;-68
2021/04/22 05:15:40;;;;;;;24.38;16.13;;;;;;;13.02;56.90;101630.06;4951957;28;20050;-67
2021/04/22 05:18:06;;;;;;;25.77;17.05;;;;;;;13.02;57.08;101623.94;4952139;28;20058;-67
2021/04/22 05:20:32;;;;;;;26.77;18.17;;;;;;;13.09;57.14;101624.47;4962592;28;20447;-68
2021/04/22 05:22:58;;;;;;;27.85;17.65;;;;;;;13.11;57.32;101626.09;4952969;28;20407;-68
2021/04/22 05:25:24;;;;;;;24.02;16.55;;;;;;;13.14;57.30;101635.59;4952031;28;20459;-68
2021/04/22 05:27:50;;;;;;;22.67;16.55;;;;;;;13.18;57.31;101637.13;4951604;28;20162;-68
2021/04/22 05:30:17;;;;;;;33.10;17.63;;;;;;;13.18;57.44;101638.00;4950923;28;20055;-69
2021/04/22 05:32:43;;;;;;;27.52;17.85;;;;;;;13.21;57.63;101631.72;4951690;28;20404;-66
2021/04/22 05:35:10;;;;;;;25.65;17.58;;;;;;;13.21;57.81;101642.25;4951755;28;20051;-69
2021/04/22 05:37:52;;;;;;;25.02;16.92;;;;;;;13.23;57.87;101646.53;4951323;28;20655;-68
2021/04/22 05:40:20;;;;;;;27.83;18.02;;;;;;;13.26;57.95;101652.56;4951531;28;20047;-68
2021/04/22 05:42:47;;;;;;;26.27;17.45;;;;;;;13.29;58.16;101655.88;4951435;28;20101;-68
2021/04/22 05:45:15;;;;;;;25.15;17.38;;;;;;;13.33;58.13;101643.38;4951508;28;20055;-68
2021/04/22 05:47:41;;;;;;;25.70;17.48;;;;;;;13.32;58.21;101652.22;4951410;28;20508;-68
2021/04/22 05:50:08;;;;;;;26.00;17.45;;;;;;;13.32;58.38;101658.38;4951330;28;20050;-68
2021/04/22 05:52:34;;;;;;;24.75;17.27;;;;;;;13.33;58.65;101660.06;4951042;28;20050;-64
2021/04/22 05:55:02;;;;;;;25.30;16.92;;;;;;;13.33;58.86;101661.84;4947407;28;20047;-66
2021/04/22 05:57:28;;;;;;;25.40;18.15;;;;;;;13.34;58.98;101664.38;4950522;28;20058;-64
2021/04/22 05:59:54;;;;;;;25.25;17.98;;;;;;;13.37;59.24;101663.44;4951381;28;20555;-65
2021/04/22 06:02:21;;;;;;;24.15;17.05;;;;;;;13.41;59.23;101664.09;4951249;28;20994;-65
2021/04/22 06:04:47;;;;;;;22.65;16.83;;;;;;;13.44;59.24;101670.06;4950796;28;20457;-64
2021/04/22 06:07:13;;;;;;;24.85;16.95;;;;;;;13.52;59.11;101667.88;4950979;28;20047;-64
2021/04/22 06:09:39;;;;;;;23.95;18.15;;;;;;;13.60;59.32;101679.75;4944241;28;20043;-64
2021/04/22 06:12:06;;;;;;;24.17;17.00;;;;;;;13.65;59.32;101675.09;4946825;28;20043;-64
2021/04/22 06:14:33;;;;;;;21.48;15.23;;;;;;;13.69;59.21;101674.84;4951920;28;20047;-64
2021/04/22 06:16:59;;;;;;;24.15;16.83;;;;;;;13.78;59.15;101672.66;4950871;28;20047;-64
2021/04/22 06:19:26;;;;;;;24.33;16.67;;;;;;;13.83;59.01;101671.44;4937534;28;20051;-63
2021/04/22 06:21:52;;;;;;;20.45;15.90;;;;;;;13.96;58.79;101668.13;4938514;29;20110;-63
2021/04/22 06:24:18;;;;;;;25.98;17.25;;;;;;;14.04;58.71;101664.13;4951009;28;20051;-63
2021/04/22 06:26:44;;;;;;;21.63;16.23;;;;;;;14.14;58.50;101672.34;4950530;28;20125;-63
2021/04/22 06:29:11;;;;;;;20.67;16.15;;;;;;;14.19;58.45;101672.97;4950453;28;20484;-65
2021/04/22 06:31:38;;;;;;;23.27;16.35;;;;;;;14.26;58.31;101668.19;4953513;28;20043;-66
2021/04/22 06:34:04;;;;;;;23.90;16.20;;;;;;;14.33;58.15;101676.59;4950474;28;20424;-65
2021/04/22 06:36:31;;;;;;;22.27;16.73;;;;;;;14.39;58.08;101675.41;4950213;28;20058;-66
2021/04/22 06:38:58;;;;;;;20.33;16.08;;;;;;;14.39;58.11;101676.25;4950166;28;20059;-66
2021/04/22 06:41:24;;;;;;;18.52;15.20;;;;;;;14.40;58.12;101677.09;4950369;28;20048;-68
2021/04/22 06:43:50;;;;;;;22.60;16.67;;;;;;;14.48;58.02;101674.88;4944989;28;20487;-65
2021/04/22 06:46:17;;;;;;;20.30;15.77;;;;;;;14.57;57.97;101678.75;4945680;29;20070;-66
2021/04/22 06:48:43;;;;;;;22.60;16.85;;;;;;;14.65;57.83;101676.53;4954019;28;20047;-65
2021/04/22 06:51:10;;;;;;;19.48;14.90;;;;;;;14.76;57.73;101676.75;4953667;28;20055;-65
2021/04/22 06:53:36;;;;;;;20.35;14.80;;;;;;;14.85;57.45;101680.63;4954249;28;20066;-65
2021/04/22 06:56:03;;;;;;;21.58;15.20;;;;;;;14.94;57.11;101668.66;4954301;28;20055;-66
2021/04/22 06:58:29;;;;;;;23.60;16.55;;;;;;;15.02;56.92;101680.47;4951622;29;20054;-65
2021/04/22 07:00:56;;;;;;;20.70;14.93;;;;;;;15.11;56.64;101681.72;4954078;28;20051;-65
2021/04/22 07:03:22;;;;;;;21.38;15.48;;;;;;;15.22;56.49;101688.16;4955852;28;20054;-65
2021/04/22 07:05:48;;;;;;;17.38;12.45;;;;;;;15.29;56.08;101687.66;4953874;28;20551;-67
2021/04/22 07:08:14;;;;;;;17.55;13.13;;;;;;;15.37;55.78;101691.66;4954177;28;20106;-65
2021/04/22 07:10:42;;;;;;;17.60;13.32;;;;;;;15.47;55.51;101698.06;4940487;28;20103;-65
2021/04/22 07:13:08;;;;;;;18.67;13.13;;;;;;;15.54;55.38;101702.03;4953925;28;20054;-66
2021/04/22 07:15:34;;;;;;;19.83;14.27;;;;;;;15.60;55.06;101698.97;4954043;28;20066;-65
2021/04/22 07:18:01;;;;;;;19.13;14.05;;;;;;;15.67;54.59;101699.47;4953445;28;20047;-62
2021/04/22 07:20:28;;;;;;;18.20;14.13;;;;;;;15.73;54.57;101701.72;4953600;28;20054;-62
2021/04/22 07:22:58;;;;;;;17.48;13.15;;;;;;;15.82;54.12;101693.22;4953547;28;20083;-63
2021/04/22 07:25:27;;;;;;;17.92;13.55;;;;;;;15.90;53.96;101686.59;4953795;28;20090;-63
2021/04/22 07:27:53;;;;;;;21.45;12.93;;;;;;;15.98;53.71;101695.72;4953477;28;20051;-63
2021/04/22 07:30:21;;;;;;;15.02;12.02;;;;;;;16.05;53.67;101698.84;4953823;28;20082;-63
2021/04/22 07:32:47;;;;;;;18.13;12.30;;;;;;;16.12;53.65;101702.78;4953333;28;20051;-62
2021/04/22 07:35:18;;;;;;;20.67;13.38;;;;;;;16.21;53.35;101703.97;4955932;28;20401;-62
2021/04/22 07:37:46;;;;;;;16.73;13.32;;;;;;;16.29;53.37;101703.47;4959075;28;20059;-62
2021/04/22 07:40:17;;;;;;;18.13;13.48;;;;;;;16.36;53.26;101707.44;4953744;28;20094;-62
2021/04/22 07:42:43;;;;;;;16.33;12.65;;;;;;;16.44;53.14;101701.63;4941595;28;20051;-63
2021/04/22 07:45:10;;;;;;;16.63;13.27;;;;;;;16.49;52.61;101708.34;4937166;29;20052;-63
2021/04/22 07:47:36;;;;;;;17.65;12.85;;;;;;;16.57;52.30;101706.94;4935479;29;20048;-63
2021/04/22 07:50:10;;;;;;;16.58;12.88;;;;;;;16.63;52.27;101703.91;4935524;29;20043;-63
2021/04/22 07:52:36;;;;;;;19.08;13.02;;;;;;;16.70;52.15;101701.72;4941528;28;20070;-62
2021/04/22 07:55:08;;;;;;;17.65;13.48;;;;;;;16.78;51.97;101700.22;4949779;29;20126;-63
2021/04/22 07:57:35;;;;;;;19.17;13.23;;;;;;;16.87;51.97;101697.91;4953624;28;20044;-62
2021/04/22 08:00:06;;;;;;;18.95;13.63;;;;;;;16.96;51.69;101692.00;4943858;28;20052;-63
2021/04/22 08:02:38;;;;;;;17.75;14.77;;;;;;;17.04;51.36;101689.69;4953011;28;20054;-62
2021/04/22 08:05:06;;;;;;;16.13;12.32;;;;;;;17.13;51.67;101685.53;4952835;28;20505;-63
2021/04/22 08:07:33;;;;;;;19.00;13.88;;;;;;;17.22;51.15;101689.38;4952637;28;20653;-64
2021/04/22 08:09:59;;;;;;;16.98;12.93;;;;;;;17.30;51.16;101687.00;4944939;28;20056;-63
2021/04/22 08:12:26;;;;;;;15.18;12.07;;;;;;;17.41;50.81;101695.06;4948485;29;20519;-63
2021/04/22 08:14:57;;;;;;;16.00;11.55;;;;;;;17.50;50.84;101684.75;4952870;28;20059;-62
2021/04/22 08:17:23;;;;;;;13.80;11.63;;;;;;;17.59;50.84;101682.28;4952657;28;20055;-63
2021/04/22 08:19:49;;;;;;;12.02;8.18;;;;;;;17.67;50.22;101686.22;4952817;28;20512;-63
2021/04/22 08:22:15;;;;;;;9.43;8.40;;;;;;;17.76;49.68;101683.75;4952486;28;20452;-63
2021/04/22 08:24:41;;;;;;;11.90;8.07;;;;;;;17.86;49.33;101683.91;4952433;28;20448;-63
2021/04/22 08:27:08;;;;;;;12.65;8.52;;;;;;;17.95;49.06;101674.44;4956405;28;20110;-63
2021/04/22 08:29:34;;;;;;;10.82;8.43;;;;;;;18.03;48.33;101677.41;4952724;28;20050;-63
2021/04/22 08:32:00;;;;;;;8.55;7.65;;;;;;;18.13;48.20;101677.56;4952425;28;20564;-63
2021/04/22 08:34:27;;;;;;;7.78;6.75;;;;;;;18.23;47.74;101680.38;4951358;29;20047;-63
2021/04/22 08:36:53;;;;;;;9.23;7.13;;;;;;;18.32;47.57;101685.03;4952273;28;20051;-63
2021/04/22 08:39:20;;;;;;;10.50;7.35;;;;;;;18.41;47.18;101684.34;4952462;28;20051;-63
2021/04/22 08:41:47;;;;;;;7.65;6.63;;;;;;;18.49;46.66;101680.28;4952185;28;20114;-63
2021/04/22 08:44:13;;;;;;;8.88;7.22;;;;;;;18.57;46.64;101678.69;4949726;28;20059;-63
2021/04/22 08:46:39;;;;;;;9.70;7.00;;;;;;;18.67;46.63;101684.16;4952395;28;20401;-63
2021/04/22 08:49:07;;;;;;;10.38;7.53;;;;;;;18.78;46.53;101680.72;4952627;28;20061;-63
2021/04/22 08:51:33;;;;;;;11.07;7.30;;;;;;;18.94;46.28;101685.72;4951755;28;20062;-63
2021/04/22 08:54:02;;;;;;;8.95;6.35;;;;;;;19.08;46.17;101677.53;4952251;28;20062;-64
2021/04/22 08:56:30;;;;;;;7.63;6.32;;;;;;;19.19;45.60;101681.16;4952040;28;20059;-64
2021/04/22 08:58:56;;;;;;;8.07;6.85;;;;;;;19.29;45.24;101676.78;4952099;28;20055;-64
2021/04/22 09:01:22;;;;;;;8.20;6.70;;;;;;;19.42;44.47;101676.66;4951390;28;20055;-64
2021/04/22 09:03:49;;;;;;;12.70;7.90;;;;;;;19.54;44.35;101683.69;4944983;28;20050;-63
2021/04/22 09:06:17;;;;;;;8.88;7.32;;;;;;;19.63;44.15;101681.22;4933805;28;20107;-62
2021/04/22 09:08:48;;;;;;;10.07;7.25;;;;;;;19.73;43.35;101680.38;4949020;29;20043;-64
2021/04/22 09:11:17;;;;;;;8.98;7.00;;;;;;;19.84;42.87;101676.88;4938220;29;20069;-62
2021/04/22 09:13:43;;;;;;;9.07;6.55;;;;;;;19.91;42.98;101682.56;4951819;28;20058;-62
2021/04/22 09:16:15;;;;;;;10.48;6.78;;;;;;;19.98;42.25;101675.75;4951436;28;20039;-62
2021/04/22 09:18:48;;;;;;;7.80;6.72;;;;;;;20.05;42.26;101679.59;4951692;28;20048;-63
2021/04/22 09:21:18;;;;;;;8.25;6.53;;;;;;;20.19;42.34;101674.97;4934512;29;20512;-62
2021/04/22 09:23:54;;;;;;;6.97;6.05;;;;;;;20.25;41.38;101679.75;4942825;29;20062;-62
2021/04/22 09:26:22;;;;;;;7.57;5.43;;;;;;;20.34;41.58;101683.47;4951163;28;20063;-63
2021/04/22 09:28:48;;;;;;;8.38;6.15;;;;;;;20.36;41.47;101670.88;4951442;28;20040;-62
2021/04/22 09:31:26;;;;;;;8.60;7.10;;;;;;;20.34;41.29;101675.50;4951300;28;20118;-63
2021/04/22 09:34:14;;;;;;;9.82;7.53;;;;;;;20.45;40.29;101670.09;4955567;28;20043;-62
2021/04/22 09:36:49;;;;;;;7.55;5.88;;;;;;;20.56;39.82;101669.22;4946902;28;20051;-63
2021/04/22 09:39:21;;;;;;;6.97;5.82;;;;;;;20.71;39.56;101669.78;4948524;28;20492;-62
2021/04/22 09:41:50;;;;;;;8.85;6.38;;;;;;;20.63;40.39;101675.72;4951064;28;20054;-62
2021/04/22 09:44:18;;;;;;;7.35;5.95;;;;;;;20.74;40.13;101661.50;4951043;28;20142;-62
2021/04/22 09:46:48;;;;;;;8.23;6.00;;;;;;;20.41;40.71;101679.34;4951037;28;20074;-62
2021/04/22 09:49:19;;;;;;;8.00;6.05;;;;;;;20.11;41.10;101672.91;4957709;28;20047;-62
2021/04/22 09:51:47;;;;;;;7.75;6.18;;;;;;;20.18;40.91;101667.94;4950829;28;20487;-63
2021/04/22 09:54:17;;;;;;;6.90;5.80;;;;;;;20.49;40.45;101663.56;4943569;28;20039;-62
2021/04/22 09:56:48;;;;;;;8.73;5.90;;;;;;;20.76;40.04;101656.03;4936437;28;20501;-63
2021/04/22 09:59:20;;;;;;;9.07;6.72;;;;;;;20.75;40.08;101657.00;4941377;29;20449;-62
2021/04/22 10:01:57;;;;;;;8.63;5.97;;;;;;;20.72;39.83;101658.09;4950492;28;20054;-62
2021/04/22 10:04:52;;;;;;;7.85;6.18;;;;;;;20.83;39.91;101657.19;4950994;28;20039;-62
2021/04/22 10:07:30;;;;;;;7.35;6.05;;;;;;;21.03;39.45;101645.63;4947932;29;20074;-62
2021/04/22 10:10:17;;;;;;;8.13;5.68;;;;;;;21.11;39.57;101652.97;4950621;28;20051;-63
2021/04/22 10:12:44;;;;;;;7.93;5.90;;;;;;;20.71;40.64;101651.94;4950746;28;20110;-63
2021/04/22 10:15:17;;;;;;;6.38;5.30;;;;;;;20.39;40.75;101650.16;4950361;28;20047;-63
2021/04/22 10:17:52;;;;;;;8.52;5.70;;;;;;;20.12;40.94;101647.13;4950810;28;20051;-62
2021/04/22 10:20:19;;;;;;;8.88;6.75;;;;;;;19.93;41.30;101659.28;4950545;28;20055;-62
2021/04/22 10:22:47;;;;;;;9.38;5.82;;;;;;;19.81;41.62;101653.13;4949915;28;20135;-64
2021/04/22 10:25:20;;;;;;;8.32;6.35;;;;;;;19.76;41.63;101655.31;4949145;28;20552;-62
2021/04/22 10:27:46;;;;;;;8.23;6.85;;;;;;;19.74;41.75;101655.44;4948684;29;20452;-62
2021/04/22 10:30:16;;;;;;;9.80;7.40;;;;;;;19.77;41.84;101648.16;4950481;28;20047;-62
2021/04/22 10:32:43;;;;;;;9.10;7.13;;;;;;;20.17;40.78;101650.25;4950095;28;20055;-63
2021/04/22 10:35:13;;;;;;;8.65;7.00;;;;;;;20.49;40.58;101636.03;4950549;28;20080;-62
2021/04/22 10:37:41;;;;;;;7.78;6.53;;;;;;;20.93;39.31;101631.41;4954153;28;20054;-62
2021/04/22 10:40:10;;;;;;;10.35;7.40;;;;;;;20.81;39.39;101627.13;4950201;28;20171;-62
2021/04/22 10:42:38;;;;;;;9.10;7.35;;;;;;;20.63;39.82;101632.19;4950188;28;20142;-62
2021/04/22 10:45:07;;;;;;;9.57;7.75;;;;;;;20.60;39.59;101624.47;4949800;28;20039;-62
2021/04/22 10:47:34;;;;;;;8.85;7.10;;;;;;;20.39;39.76;101636.81;4950324;28;20047;-64
2021/04/22 10:50:00;;;;;;;7.68;4.78;;;;;;;20.20;40.65;101629.53;4939350;28;20511;-63
2021/04/22 10:52:27;;;;;;;17.98;10.57;;;;;;;20.05;41.67;101639.63;4940102;29;20043;-63
2021/04/22 10:54:53;;;;;;;14.65;8.52;;;;;;;19.94;42.02;101641.50;4947803;28;20047;-62
2021/04/22 10:57:22;;;;;;;9.57;7.50;;;;;;;19.82;42.27;101628.22;4948802;28;20551;-63
2021/04/22 11:00:05;;;;;;;11.27;7.60;;;;;;;19.81;42.05;101641.63;4949925;28;20051;-63
2021/04/22 11:02:42;;;;;;;11.98;7.53;;;;;;;19.75;42.33;101633.16;4949930;28;20102;-62
2021/04/22 11:05:27;;;;;;;8.85;7.07;;;;;;;19.72;42.29;101633.41;4949443;28;20528;-63
2021/04/22 11:08:00;;;;;;;9.82;8.65;;;;;;;19.77;42.30;101627.72;4949554;28;20063;-62
2021/04/22 11:10:41;;;;;;;17.77;8.52;;;;;;;20.06;41.93;101625.34;4949682;28;20522;-60
2021/04/22 11:13:31;;;;;;;12.77;7.93;;;;;;;20.59;42.27;101618.28;4950636;28;20039;-60
2021/04/22 11:16:03;;;;;;;16.70;7.20;;;;;;;20.87;41.44;101608.78;4953001;28;20055;-60